Time;durP1;ratioP1;P1;durP2;ratioP2;P2;SDS_P1;SDS_P2;PMS_P1;PMS_P2;Temp;Humidity;BMP_temperature;BMP_pressure;BME280_temperature;BME280_humidity;BME280_pressure;Samples;Min_cycle;Max_cycle;Signal;HPM_P1;HPM_P2
2022/05/22 00:00:32;;;;;;;0.90;0.90;;;22.00;59.00;;;;;;4958443;28;20195;-70
2022/05/22 00:02:57;;;;;;;0.82;0.82;;;22.00;59.00;;;;;;4974252;28;20190;-70
2022/05/22 00:05:25;;;;;;;0.88;0.88;;;22.00;59.00;;;;;;4973649;28;20193;-70
2022/05/22 00:07:51;;;;;;;0.70;0.70;;;22.00;59.00;;;;;;4972842;28;20181;-70
2022/05/22 00:10:19;;;;;;;0.88;0.88;;;22.00;59.00;;;;;;4973796;28;20193;-70
2022/05/22 00:12:45;;;;;;;1.20;1.10;;;22.00;59.00;;;;;;4956924;28;20225;-70
2022/05/22 00:15:14;;;;;;;1.92;1.10;;;22.00;59.00;;;;;;4974320;28;20173;-70
2022/05/22 00:17:40;;;;;;;1.13;1.00;;;22.00;59.00;;;;;;4956849;28;20217;-70
2022/05/22 00:20:07;;;;;;;1.67;1.00;;;22.00;59.00;;;;;;4972930;28;20196;-70
2022/05/22 00:22:32;;;;;;;1.30;1.20;;;22.00;59.60;;;;;;4957173;28;20197;-69
2022/05/22 00:24:58;;;;;;;1.30;1.20;;;22.00;59.00;;;;;;4957006;28;20186;-70
2022/05/22 00:27:25;;;;;;;1.08;1.02;;;22.00;59.00;;;;;;4972692;28;20240;-70
2022/05/22 00:29:51;;;;;;;1.00;1.00;;;22.00;59.00;;;;;;4973113;28;20190;-69
2022/05/22 00:32:17;;;;;;;1.20;1.10;;;22.00;59.10;;;;;;4972826;28;20252;-69
2022/05/22 00:34:43;;;;;;;1.20;1.10;;;22.00;59.00;;;;;;4972543;28;20185;-69
2022/05/22 00:37:09;;;;;;;1.20;1.00;;;22.00;59.00;;;;;;4973605;28;20621;-70
2022/05/22 00:39:35;;;;;;;1.80;1.08;;;21.90;59.00;;;;;;4957224;28;20209;-70
2022/05/22 00:42:13;;;;;;;1.30;0.90;;;22.00;59.00;;;;;;4957005;28;20200;-70
2022/05/22 00:44:39;;;;;;;1.20;1.08;;;22.00;59.00;;;;;;4973194;28;20217;-69
2022/05/22 00:47:04;;;;;;;0.80;0.80;;;21.90;59.00;;;;;;4988677;28;20194;-69
2022/05/22 00:49:33;;;;;;;0.88;0.88;;;22.00;59.10;;;;;;4973898;28;20205;-70
2022/05/22 00:52:36;;;;;;;0.90;0.90;;;22.00;59.00;;;;;;4972960;28;20340;-70
2022/05/22 00:55:11;;;;;;;1.30;1.20;;;21.90;58.90;;;;;;4971373;28;20193;-70
2022/05/22 00:57:44;;;;;;;1.70;1.00;;;22.00;59.00;;;;;;4988719;28;20208;-70
2022/05/22 01:00:19;;;;;;;1.15;1.10;;;22.00;59.00;;;;;;4956471;28;20243;-70
2022/05/22 01:05:45;;;;;;;1.40;1.30;;;22.00;59.00;;;;;;4972880;28;20228;-70
2022/05/22 01:08:11;;;;;;;1.13;1.00;;;22.00;59.00;;;;;;4972594;28;20185;-69
2022/05/22 01:10:46;;;;;;;1.08;1.00;;;21.90;59.00;;;;;;4988918;28;20190;-70
2022/05/22 01:13:14;;;;;;;0.80;0.80;;;22.00;59.00;;;;;;4972214;28;20647;-70
2022/05/22 01:15:41;;;;;;;1.80;1.23;;;22.00;59.10;;;;;;4981543;28;20220;-70
2022/05/22 01:18:07;;;;;;;1.10;1.00;;;22.00;59.10;;;;;;5008154;28;20177;-69
2022/05/22 01:20:32;;;;;;;0.98;0.80;;;21.90;59.00;;;;;;4992904;28;20196;-70
2022/05/22 01:22:58;;;;;;;1.10;1.00;;;21.90;58.90;;;;;;5008291;28;20196;-70
2022/05/22 01:25:24;;;;;;;1.15;1.13;;;22.00;59.00;;;;;;4992006;28;20604;-70
2022/05/22 01:27:51;;;;;;;0.90;0.90;;;22.00;59.00;;;;;;5007895;28;20200;-70
2022/05/22 01:30:27;;;;;;;0.80;0.80;;;21.90;58.90;;;;;;5008268;28;20195;-70
2022/05/22 01:33:11;;;;;;;1.20;1.10;;;21.90;59.00;;;;;;4978122;28;20280;-70
2022/05/22 01:35:39;;;;;;;1.10;1.00;;;21.90;59.00;;;;;;5008080;28;20205;-70
2022/05/22 01:38:06;;;;;;;0.95;0.88;;;21.90;59.10;;;;;;4975442;28;20181;-70
2022/05/22 01:40:37;;;;;;;0.80;0.80;;;21.90;59.00;;;;;;5008108;28;20191;-70
2022/05/22 01:43:04;;;;;;;1.10;1.00;;;21.90;59.00;;;;;;5008054;28;20188;-70
2022/05/22 01:45:33;;;;;;;1.25;0.90;;;21.90;59.00;;;;;;5008269;28;20303;-70
2022/05/22 01:48:01;;;;;;;1.08;1.00;;;21.90;59.00;;;;;;4979368;28;20192;-69
2022/05/22 01:50:34;;;;;;;0.90;0.90;;;21.90;59.00;;;;;;5011420;28;20185;-70
2022/05/22 01:53:01;;;;;;;0.93;0.93;;;21.90;59.00;;;;;;5011535;28;20205;-70
2022/05/22 01:55:27;;;;;;;0.95;0.95;;;21.90;59.00;;;;;;4978789;28;20180;-70
2022/05/22 01:57:53;;;;;;;3.40;1.02;;;21.90;59.00;;;;;;4995210;28;20185;-70
2022/05/22 02:00:24;;;;;;;0.88;0.88;;;21.90;59.00;;;;;;5011660;28;20239;-70
2022/05/22 02:02:56;;;;;;;1.13;1.02;;;21.90;59.00;;;;;;4979507;28;20180;-70
2022/05/22 02:05:31;;;;;;;1.00;1.00;;;21.90;59.00;;;;;;4979613;28;20184;-70
2022/05/22 02:10:44;;;;;;;0.80;0.80;;;21.90;59.00;;;;;;5010397;28;20679;-70
2022/05/22 02:13:11;;;;;;;0.82;0.82;;;21.90;59.00;;;;;;4975375;28;20210;-70
2022/05/22 02:15:38;;;;;;;1.00;0.90;;;21.90;59.00;;;;;;4975274;28;20306;-70
2022/05/22 02:18:04;;;;;;;0.80;0.80;;;21.90;59.00;;;;;;4975297;28;20186;-70
2022/05/22 02:20:30;;;;;;;1.05;1.02;;;21.90;59.60;;;;;;4991374;28;20193;-70
2022/05/22 02:22:57;;;;;;;0.70;0.70;;;21.90;59.60;;;;;;4976670;28;20649;-70
2022/05/22 02:25:37;;;;;;;1.33;1.00;;;21.90;59.00;;;;;;4959334;28;20192;-70
2022/05/22 02:28:08;;;;;;;0.80;0.80;;;21.80;58.90;;;;;;4992020;28;20182;-70
2022/05/22 02:30:39;;;;;;;1.13;1.13;;;21.90;59.00;;;;;;4992136;28;20190;-70
2022/05/22 02:33:06;;;;;;;1.00;0.90;;;21.90;59.00;;;;;;4991539;28;20245;-70
2022/05/22 02:35:40;;;;;;;1.10;1.00;;;21.80;58.90;;;;;;4975400;28;20228;-69
2022/05/22 02:38:15;;;;;;;1.13;0.90;;;21.90;58.90;;;;;;4960085;28;20181;-70
2022/05/22 02:40:48;;;;;;;0.80;0.80;;;21.80;58.90;;;;;;4991547;28;20182;-70
2022/05/22 02:43:14;;;;;;;0.70;0.70;;;21.80;58.90;;;;;;4991773;28;20676;-70
2022/05/22 02:45:44;;;;;;;0.90;0.90;;;21.80;58.90;;;;;;4991385;28;20205;-70
2022/05/22 02:48:15;;;;;;;1.00;0.90;;;21.80;59.00;;;;;;4959650;28;20196;-70
2022/05/22 02:50:53;;;;;;;0.80;0.80;;;21.80;58.90;;;;;;4975187;28;20192;-69
2022/05/22 02:53:20;;;;;;;0.90;0.90;;;21.80;58.90;;;;;;4974648;28;20213;-70
2022/05/22 02:56:17;;;;;;;1.05;0.90;;;21.80;59.00;;;;;;4977965;28;20223;-69
2022/05/22 02:58:55;;;;;;;0.98;0.98;;;21.80;59.00;;;;;;4994334;28;20187;-70
2022/05/22 03:01:21;;;;;;;0.80;0.80;;;21.80;58.90;;;;;;5011826;28;20177;-70
2022/05/22 03:03:50;;;;;;;1.00;1.00;;;21.80;58.90;;;;;;4995095;28;20680;-70
2022/05/22 03:09:00;;;;;;;1.05;1.00;;;21.80;58.90;;;;;;5010623;28;20192;-70
2022/05/22 03:11:26;;;;;;;0.70;0.70;;;21.80;59.00;;;;;;4994210;28;20180;-70
2022/05/22 03:13:52;;;;;;;0.80;0.80;;;21.80;58.90;;;;;;4993818;28;20213;-70
2022/05/22 03:16:17;;;;;;;0.80;0.80;;;21.80;58.90;;;;;;4977417;28;20212;-70
2022/05/22 03:19:06;;;;;;;0.80;0.80;;;21.80;59.00;;;;;;4993470;28;20192;-70
2022/05/22 03:21:32;;;;;;;0.80;0.80;;;21.80;59.00;;;;;;4993840;28;20197;-70
2022/05/22 03:24:00;;;;;;;0.90;0.88;;;21.80;59.00;;;;;;4993481;28;20702;-69
2022/05/22 03:26:26;;;;;;;1.15;1.05;;;21.80;59.00;;;;;;4993214;28;20205;-69
2022/05/22 03:28:52;;;;;;;1.25;0.88;;;21.80;59.00;;;;;;4993765;28;20193;-70
2022/05/22 03:31:19;;;;;;;0.88;0.82;;;21.80;58.90;;;;;;5009991;28;20223;-70
2022/05/22 03:33:45;;;;;;;1.00;1.00;;;21.80;59.00;;;;;;4977070;28;20221;-70
2022/05/22 03:36:11;;;;;;;0.93;0.80;;;21.80;59.00;;;;;;5009669;28;20204;-70
2022/05/22 03:38:37;;;;;;;1.10;1.00;;;21.80;59.00;;;;;;5009321;28;20173;-70
2022/05/22 03:41:05;;;;;;;1.15;1.05;;;21.80;59.00;;;;;;4977093;28;20181;-70
2022/05/22 03:43:36;;;;;;;1.20;0.82;;;21.80;58.90;;;;;;4993462;28;20181;-70
2022/05/22 03:46:03;;;;;;;0.90;0.90;;;21.80;58.90;;;;;;4976845;28;20201;-70
2022/05/22 03:48:32;;;;;;;0.90;0.90;;;21.80;59.00;;;;;;4993125;28;20234;-69
2022/05/22 03:50:57;;;;;;;0.93;0.90;;;21.80;58.90;;;;;;4992905;28;20200;-70
2022/05/22 03:53:25;;;;;;;0.90;0.90;;;21.80;58.80;;;;;;4977066;28;20380;-69
2022/05/22 03:56:14;;;;;;;0.80;0.80;;;21.80;58.90;;;;;;5069791;28;20543;-70
2022/05/22 03:58:41;;;;;;;1.23;1.13;;;21.80;58.90;;;;;;5048769;28;20178;-69
2022/05/22 04:01:07;;;;;;;0.93;0.80;;;21.80;59.00;;;;;;5048596;28;20183;-70
2022/05/22 04:03:40;;;;;;;1.15;1.05;;;21.80;59.00;;;;;;5045794;28;20186;-69
2022/05/22 04:06:10;;;;;;;0.75;0.75;;;21.80;59.00;;;;;;5027247;28;20190;-69
2022/05/22 04:08:38;;;;;;;1.10;1.00;;;21.80;59.50;;;;;;5028718;28;20222;-70
2022/05/22 04:11:16;;;;;;;1.65;1.00;;;21.80;58.90;;;;;;5031094;28;20179;-69
2022/05/22 04:13:45;;;;;;;1.05;0.95;;;21.80;58.90;;;;;;5033278;28;20179;-70
2022/05/22 04:16:11;;;;;;;1.27;1.10;;;21.80;59.00;;;;;;5029539;28;20230;-70
2022/05/22 04:18:37;;;;;;;1.15;1.10;;;21.80;58.90;;;;;;5028509;28;20226;-69
2022/05/22 04:21:04;;;;;;;0.98;0.98;;;21.80;58.90;;;;;;5028588;28;20214;-70
2022/05/22 04:26:51;;;;;;;1.13;0.95;;;21.80;58.90;;;;;;5028009;28;20218;-70
2022/05/22 04:29:18;;;;;;;0.80;0.80;;;21.70;58.90;;;;;;5028388;28;20184;-70
2022/05/22 04:31:44;;;;;;;1.13;1.02;;;21.70;58.80;;;;;;5011742;28;20184;-70
2022/05/22 04:34:16;;;;;;;1.00;1.00;;;21.70;58.90;;;;;;5028338;28;20682;-70
2022/05/22 04:36:43;;;;;;;1.08;1.00;;;21.80;59.00;;;;;;5027844;28;20191;-69
2022/05/22 04:39:17;;;;;;;0.90;0.90;;;21.80;58.90;;;;;;5028101;28;20179;-69
2022/05/22 04:41:55;;;;;;;1.10;1.00;;;21.70;58.90;;;;;;5044496;28;20179;-69
2022/05/22 04:44:22;;;;;;;0.90;0.90;;;21.70;58.80;;;;;;5027935;28;20215;-70
2022/05/22 04:46:59;;;;;;;1.05;1.00;;;21.70;58.80;;;;;;5027712;28;20223;-70
2022/05/22 04:49:25;;;;;;;1.02;0.82;;;21.70;58.80;;;;;;5027967;28;20194;-70
2022/05/22 04:51:50;;;;;;;0.70;0.70;;;21.70;59.40;;;;;;5011468;28;20183;-70
2022/05/22 04:54:16;;;;;;;1.10;0.77;;;21.70;58.90;;;;;;5027700;28;20229;-69
2022/05/22 04:56:52;;;;;;;0.80;0.80;;;21.70;58.90;;;;;;5012286;28;20201;-69
2022/05/22 04:59:21;;;;;;;0.75;0.75;;;21.70;58.90;;;;;;5027919;28;20183;-69
2022/05/22 05:01:48;;;;;;;0.75;0.75;;;21.70;58.90;;;;;;5027494;28;20191;-70
2022/05/22 05:04:22;;;;;;;1.58;0.90;;;21.70;58.90;;;;;;5027584;28;20205;-70
2022/05/22 05:07:09;;;;;;;1.05;1.00;;;21.70;58.90;;;;;;5016898;28;20278;-70
2022/05/22 05:09:55;;;;;;;1.70;1.15;;;21.70;58.90;;;;;;5015343;28;20192;-70
2022/05/22 05:12:40;;;;;;;0.90;0.90;;;21.70;58.90;;;;;;5000677;28;20214;-70
2022/05/22 05:15:11;;;;;;;1.15;0.93;;;21.70;58.90;;;;;;5013165;28;20693;-70
2022/05/22 05:17:41;;;;;;;1.10;1.00;;;21.70;58.90;;;;;;5030097;28;20196;-70
2022/05/22 05:20:08;;;;;;;0.82;0.80;;;21.70;58.90;;;;;;4997731;28;20226;-70
2022/05/22 05:22:47;;;;;;;0.90;0.90;;;21.70;58.90;;;;;;4999731;28;20209;-69
2022/05/22 05:25:22;;;;;;;0.90;0.90;;;21.70;58.90;;;;;;4999094;28;20210;-70
2022/05/22 05:27:48;;;;;;;1.02;1.02;;;21.70;58.90;;;;;;5030364;28;20180;-70
2022/05/22 05:30:18;;;;;;;1.08;0.90;;;21.70;58.90;;;;;;4998308;28;20188;-70
2022/05/22 05:32:46;;;;;;;1.20;1.08;;;21.70;58.90;;;;;;5030327;28;20269;-70
2022/05/22 05:35:32;;;;;;;1.20;1.10;;;21.70;58.90;;;;;;5014780;28;20208;-70
2022/05/22 05:38:01;;;;;;;1.40;1.30;;;21.70;58.90;;;;;;5013650;28;20242;-70
2022/05/22 05:40:27;;;;;;;0.90;0.90;;;21.70;59.50;;;;;;4997810;28;20192;-70
2022/05/22 05:42:54;;;;;;;1.30;0.90;;;21.70;58.90;;;;;;5013712;28;20184;-70
2022/05/22 05:45:21;;;;;;;1.02;0.80;;;21.70;58.90;;;;;;4997893;28;20246;-70
2022/05/22 05:47:51;;;;;;;0.90;0.90;;;21.70;58.90;;;;;;5029215;28;20184;-70
2022/05/22 05:50:42;;;;;;;1.30;1.20;;;21.70;58.90;;;;;;5046526;28;20216;-70
2022/05/22 05:53:28;;;;;;;0.82;0.82;;;21.70;59.00;;;;;;5013316;28;20670;-70
2022/05/22 05:56:04;;;;;;;1.65;1.05;;;21.70;59.00;;;;;;5013703;28;20226;-70
2022/05/22 05:58:31;;;;;;;1.23;1.13;;;21.70;59.00;;;;;;5014658;28;20290;-71
2022/05/22 06:01:13;;;;;;;2.55;1.10;;;21.70;59.00;;;;;;4998453;28;20215;-71
2022/05/22 06:03:40;;;;;;;1.20;1.10;;;21.70;59.00;;;;;;5012999;28;20185;-71
2022/05/22 06:06:08;;;;;;;1.30;1.20;;;21.80;59.60;;;;;;5012312;28;20669;-71
2022/05/22 06:08:37;;;;;;;1.73;1.05;;;21.70;58.90;;;;;;5034598;28;20229;-71
2022/05/22 06:11:23;;;;;;;0.90;0.90;;;21.80;59.00;;;;;;5012930;28;20185;-71
2022/05/22 06:13:50;;;;;;;0.75;0.75;;;21.80;59.00;;;;;;5010023;28;20204;-71
2022/05/22 06:16:16;;;;;;;1.10;1.00;;;21.80;59.00;;;;;;5010099;28;20188;-71
2022/05/22 06:18:58;;;;;;;0.90;0.90;;;21.80;59.00;;;;;;4992304;28;20169;-71
2022/05/22 06:21:24;;;;;;;1.48;0.80;;;21.80;59.00;;;;;;5009802;28;20176;-71
2022/05/22 06:23:51;;;;;;;1.00;1.00;;;21.80;59.00;;;;;;5009674;28;20205;-71
2022/05/22 06:26:43;;;;;;;1.20;1.00;;;21.80;59.00;;;;;;4994527;28;20228;-70
2022/05/22 06:29:27;;;;;;;1.23;1.13;;;21.80;59.00;;;;;;5002370;28;20251;-71
2022/05/22 06:32:15;;;;;;;1.35;1.25;;;21.80;59.00;;;;;;4994509;28;20280;-71
2022/05/22 06:34:56;;;;;;;1.20;1.10;;;21.80;59.00;;;;;;5025825;28;20219;-71
2022/05/22 06:37:40;;;;;;;0.77;0.77;;;21.80;59.00;;;;;;4993141;28;20192;-71
2022/05/22 06:40:29;;;;;;;1.27;1.17;;;21.80;59.00;;;;;;4992999;28;20189;-71
2022/05/22 06:43:21;;;;;;;1.13;1.00;;;21.80;59.00;;;;;;4993258;28;20208;-70
2022/05/22 06:46:16;;;;;;;0.88;0.85;;;21.90;59.10;;;;;;5009186;28;20219;-71
2022/05/22 06:49:02;;;;;;;1.00;0.90;;;21.90;59.10;;;;;;4992445;28;20176;-72
2022/05/22 06:51:47;;;;;;;1.02;0.82;;;21.90;59.10;;;;;;4994140;28;20175;-73
2022/05/22 06:54:43;;;;;;;0.82;0.82;;;21.90;59.10;;;;;;5002301;28;20207;-73
2022/05/22 06:57:28;;;;;;;1.20;1.10;;;21.90;59.00;;;;;;5025307;28;20276;-73
2022/05/22 07:00:16;;;;;;;1.00;1.00;;;21.90;59.00;;;;;;4992872;28;20331;-73
2022/05/22 07:03:00;;;;;;;1.40;1.30;;;21.90;59.00;;;;;;5004032;28;20215;-73
2022/05/22 07:06:02;;;;;;;1.48;1.25;;;21.90;58.90;;;;;;5010942;28;20229;-73
2022/05/22 07:08:53;;;;;;;1.30;1.20;;;21.90;59.00;;;;;;4987001;28;20260;-73
2022/05/22 07:11:54;;;;;;;1.10;1.10;;;21.90;58.90;;;;;;4992352;28;20633;-73
2022/05/22 07:14:32;;;;;;;1.17;1.13;;;21.90;58.90;;;;;;4996044;28;20219;-73
2022/05/22 07:17:24;;;;;;;1.20;1.13;;;21.90;59.00;;;;;;5002670;28;20243;-72
2022/05/22 07:20:23;;;;;;;0.98;0.98;;;21.90;58.80;;;;;;5025173;28;20181;-73
2022/05/22 07:23:09;;;;;;;1.48;1.20;;;21.90;58.80;;;;;;5004132;28;20211;-73
2022/05/22 07:25:46;;;;;;;1.80;1.20;;;21.90;58.80;;;;;;5040267;28;20208;-73
2022/05/22 07:28:33;;;;;;;1.40;1.30;;;21.90;58.90;;;;;;5021599;28;20185;-73
2022/05/22 07:31:20;;;;;;;1.63;1.40;;;21.90;58.80;;;;;;4977202;28;20184;-73
2022/05/22 07:34:06;;;;;;;1.10;1.02;;;22.00;58.90;;;;;;4992145;28;20244;-73
2022/05/22 07:37:03;;;;;;;1.35;1.17;;;22.00;58.80;;;;;;4992494;28;20558;-73
2022/05/22 07:39:48;;;;;;;1.05;1.02;;;22.00;58.80;;;;;;5010997;28;20194;-73
2022/05/22 07:42:20;;;;;;;1.70;1.20;;;22.00;58.80;;;;;;5013233;28;20652;-74
2022/05/22 07:45:11;;;;;;;1.30;1.20;;;22.00;58.70;;;;;;5014408;28;20246;-73
2022/05/22 07:47:58;;;;;;;1.55;1.27;;;22.10;58.60;;;;;;5011723;28;20203;-74
2022/05/22 07:50:52;;;;;;;1.23;1.23;;;22.00;58.60;;;;;;5013707;28;20262;-73
2022/05/22 07:53:37;;;;;;;1.30;1.20;;;22.10;58.60;;;;;;5012567;28;20179;-73
2022/05/22 07:56:15;;;;;;;1.30;1.20;;;22.10;58.60;;;;;;4997000;28;20243;-73
2022/05/22 07:58:59;;;;;;;1.25;1.15;;;22.10;58.60;;;;;;5012585;28;20199;-73
2022/05/22 08:01:56;;;;;;;2.42;1.30;;;22.10;58.60;;;;;;5011448;28;20184;-73
2022/05/22 08:04:32;;;;;;;2.00;1.40;;;22.10;58.50;;;;;;5011638;28;20200;-73
2022/05/22 08:07:04;;;;;;;1.38;1.27;;;22.10;58.50;;;;;;5012444;28;20203;-73
2022/05/22 08:09:53;;;;;;;1.15;1.05;;;22.10;58.40;;;;;;5011484;28;20195;-74
2022/05/22 08:12:19;;;;;;;1.00;1.00;;;22.10;58.40;;;;;;5011173;28;20187;-73
2022/05/22 08:14:45;;;;;;;0.95;0.95;;;22.20;58.40;;;;;;5011869;28;20262;-73
2022/05/22 08:17:11;;;;;;;1.95;1.30;;;22.20;58.40;;;;;;4995262;28;20548;-73
2022/05/22 08:19:37;;;;;;;1.27;1.10;;;22.20;58.40;;;;;;4995391;28;20180;-73
2022/05/22 08:22:15;;;;;;;1.52;1.20;;;22.20;58.30;;;;;;4996386;28;20745;-73
2022/05/22 08:25:20;;;;;;;0.98;0.98;;;22.20;58.30;;;;;;5015326;28;20231;-73
2022/05/22 08:27:48;;;;;;;1.13;1.02;;;22.10;58.20;;;;;;4995227;28;20180;-73
2022/05/22 08:30:18;;;;;;;1.83;1.10;;;22.20;58.30;;;;;;5011174;28;20184;-74
2022/05/22 08:32:47;;;;;;;1.50;1.20;;;22.20;58.30;;;;;;5011131;28;20188;-73
2022/05/22 08:35:19;;;;;;;1.40;1.20;;;22.20;58.40;;;;;;5012183;28;20218;-74
2022/05/22 08:37:45;;;;;;;1.13;1.02;;;22.20;58.40;;;;;;4994913;28;20188;-74
2022/05/22 08:40:15;;;;;;;1.52;1.35;;;22.20;58.20;;;;;;5011165;28;20188;-74
2022/05/22 08:42:48;;;;;;;1.20;1.10;;;22.20;58.30;;;;;;5014475;28;20195;-73
2022/05/22 08:45:28;;;;;;;2.20;1.00;;;22.20;58.20;;;;;;5015044;28;20223;-74
2022/05/22 08:48:14;;;;;;;1.00;0.82;;;22.20;58.10;;;;;;5014596;28;20172;-73
2022/05/22 08:50:44;;;;;;;1.70;1.15;;;22.20;58.10;;;;;;5014656;28;20255;-73
2022/05/22 08:53:39;;;;;;;1.75;1.10;;;22.30;58.20;;;;;;5014570;28;20388;-73
2022/05/22 08:59:12;;;;;;;1.45;1.23;;;22.30;58.90;;;;;;5015625;28;20303;-74
2022/05/22 09:01:37;;;;;;;1.23;0.98;;;22.30;58.20;;;;;;4998378;28;20171;-73
2022/05/22 09:04:03;;;;;;;1.45;1.13;;;22.30;58.20;;;;;;5014407;28;20208;-73
2022/05/22 09:06:51;;;;;;;1.17;1.00;;;22.30;58.20;;;;;;5014375;28;20187;-74
2022/05/22 09:09:17;;;;;;;1.63;1.10;;;22.30;58.30;;;;;;5014519;28;20191;-73
2022/05/22 09:12:46;;;;;;;1.73;1.10;;;22.30;58.20;;;;;;4997997;28;20188;-73
2022/05/22 09:15:49;;;;;;;1.20;1.10;;;22.30;58.30;;;;;;5015287;28;20254;-73
2022/05/22 09:18:26;;;;;;;1.73;1.30;;;22.30;58.50;;;;;;5015022;28;20191;-73
2022/05/22 09:21:05;;;;;;;1.92;0.85;;;22.30;58.60;;;;;;4998023;28;20260;-73
2022/05/22 09:24:03;;;;;;;3.50;1.23;;;22.30;58.60;;;;;;5014024;28;20187;-73
2022/05/22 09:27:03;;;;;;;1.10;1.00;;;22.30;59.00;;;;;;5013917;28;20203;-74
2022/05/22 09:29:49;;;;;;;0.93;0.93;;;22.30;58.30;;;;;;5013959;28;20180;-73
2022/05/22 09:32:37;;;;;;;1.30;1.17;;;22.30;58.20;;;;;;5014175;28;20176;-73
2022/05/22 09:35:18;;;;;;;1.30;1.20;;;22.30;58.30;;;;;;5013631;28;20247;-73
2022/05/22 09:38:35;;;;;;;0.88;0.82;;;22.30;58.50;;;;;;5014795;28;20168;-73
2022/05/22 09:41:40;;;;;;;1.27;1.08;;;22.30;58.40;;;;;;5030324;28;20527;-73
2022/05/22 09:44:29;;;;;;;1.35;0.90;;;22.30;58.40;;;;;;5014784;28;20589;-73
2022/05/22 09:47:34;;;;;;;1.10;1.00;;;22.30;58.40;;;;;;5013488;28;20596;-74
2022/05/22 09:50:22;;;;;;;1.10;0.90;;;22.30;58.40;;;;;;5013047;28;20200;-73
2022/05/22 09:53:20;;;;;;;1.77;0.93;;;22.30;58.40;;;;;;5013466;28;20181;-73
2022/05/22 09:55:51;;;;;;;1.10;0.90;;;22.30;58.40;;;;;;4997062;28;20307;-73
2022/05/22 09:58:54;;;;;;;1.35;0.98;;;22.30;58.60;;;;;;5014383;28;20220;-73
2022/05/22 10:01:35;;;;;;;0.90;0.90;;;22.30;58.50;;;;;;5013302;28;20199;-73
2022/05/22 10:04:21;;;;;;;1.42;0.98;;;22.30;58.70;;;;;;4996948;28;20207;-73
2022/05/22 10:07:13;;;;;;;2.58;1.00;;;22.30;58.70;;;;;;4997312;28;20172;-73
2022/05/22 10:09:59;;;;;;;1.92;1.00;;;22.30;58.70;;;;;;5014721;28;20234;-73
2022/05/22 10:13:00;;;;;;;0.80;0.80;;;22.30;58.80;;;;;;5013482;28;20172;-73
2022/05/22 10:16:07;;;;;;;1.10;1.00;;;22.30;58.80;;;;;;5012866;28;20215;-73
2022/05/22 10:19:01;;;;;;;0.80;0.73;;;22.30;58.90;;;;;;5013492;28;20274;-73
2022/05/22 10:21:47;;;;;;;1.48;1.00;;;22.30;58.80;;;;;;4997094;28;20176;-73
2022/05/22 10:24:32;;;;;;;1.88;1.35;;;22.30;58.80;;;;;;5029384;28;20758;-73
2022/05/22 10:27:22;;;;;;;1.02;0.93;;;22.30;58.90;;;;;;5013111;28;20188;-73
2022/05/22 10:30:14;;;;;;;1.42;1.00;;;22.30;58.70;;;;;;4996539;28;20183;-73
2022/05/22 10:33:00;;;;;;;1.30;0.90;;;22.40;58.70;;;;;;4996410;28;20690;-73
2022/05/22 10:35:50;;;;;;;1.25;1.13;;;22.40;58.70;;;;;;5029086;28;20711;-74
2022/05/22 10:38:54;;;;;;;1.27;0.98;;;22.40;58.80;;;;;;4996150;28;20182;-73
2022/05/22 10:44:17;;;;;;;1.17;1.08;;;22.40;59.10;;;;;;5012397;28;20203;-73
2022/05/22 10:46:53;;;;;;;0.93;0.82;;;22.40;58.80;;;;;;5012597;28;20247;-73
2022/05/22 10:49:25;;;;;;;0.95;0.95;;;22.40;58.90;;;;;;5012530;28;20184;-73
2022/05/22 10:52:01;;;;;;;1.80;1.00;;;22.40;58.80;;;;;;5012495;28;20176;-73
2022/05/22 10:54:35;;;;;;;1.10;1.00;;;22.40;59.00;;;;;;5012282;28;20216;-73
2022/05/22 10:57:16;;;;;;;0.88;0.88;;;22.40;59.00;;;;;;5012625;28;20192;-71
2022/05/22 10:59:43;;;;;;;1.70;0.88;;;22.40;59.00;;;;;;5013537;28;20173;-71
2022/05/22 11:02:28;;;;;;;1.40;1.23;;;22.40;59.10;;;;;;5021276;28;20195;-72
2022/05/22 11:04:56;;;;;;;1.85;0.98;;;22.40;59.10;;;;;;5012815;28;20211;-71
2022/05/22 11:07:29;;;;;;;1.27;0.95;;;22.40;59.10;;;;;;5011888;28;20195;-71
2022/05/22 11:10:06;;;;;;;1.20;1.10;;;22.40;59.00;;;;;;5028549;28;20188;-72
2022/05/22 11:12:32;;;;;;;1.15;0.93;;;22.40;59.10;;;;;;5012442;28;20194;-72
2022/05/22 11:15:15;;;;;;;0.85;0.70;;;22.40;59.00;;;;;;5011891;28;20216;-71
2022/05/22 11:17:41;;;;;;;2.25;1.10;;;22.40;59.10;;;;;;5011942;28;20184;-72
2022/05/22 11:20:23;;;;;;;1.20;1.10;;;22.40;59.10;;;;;;5012210;28;20179;-71
2022/05/22 11:23:37;;;;;;;1.17;1.00;;;22.40;59.30;;;;;;5011818;28;20202;-71
2022/05/22 11:26:43;;;;;;;0.98;0.90;;;22.40;59.30;;;;;;4958828;28;20188;-71
2022/05/22 11:29:51;;;;;;;1.02;0.90;;;22.40;59.20;;;;;;5011739;28;20172;-72
2022/05/22 11:32:41;;;;;;;1.05;1.00;;;22.40;59.20;;;;;;5013087;28;20576;-71
2022/05/22 11:35:31;;;;;;;2.08;0.93;;;22.40;59.50;;;;;;4992195;28;20674;-71
2022/05/22 11:38:06;;;;;;;1.02;1.00;;;22.40;59.50;;;;;;4992295;28;20217;-71
2022/05/22 11:40:49;;;;;;;4.28;1.10;;;22.40;59.30;;;;;;4975914;28;20180;-71
2022/05/22 11:43:48;;;;;;;1.67;1.00;;;22.40;59.40;;;;;;4993172;28;20703;-71
2022/05/22 11:46:28;;;;;;;1.25;1.13;;;22.40;59.20;;;;;;4993130;28;20170;-71
2022/05/22 11:49:10;;;;;;;3.80;1.27;;;22.40;59.50;;;;;;4975894;28;20235;-71
2022/05/22 11:52:05;;;;;;;1.52;1.02;;;22.40;59.40;;;;;;4976013;28;20192;-71
2022/05/22 11:54:56;;;;;;;1.15;0.98;;;22.40;59.20;;;;;;4991726;28;20212;-71
2022/05/22 11:57:31;;;;;;;1.15;0.82;;;22.40;59.20;;;;;;4990685;28;20196;-71
2022/05/22 12:00:33;;;;;;;1.13;1.02;;;22.40;59.30;;;;;;4995291;28;20644;-71
2022/05/22 12:03:41;;;;;;;1.52;0.90;;;22.40;59.30;;;;;;5012830;28;20175;-71
2022/05/22 12:06:36;;;;;;;1.92;1.02;;;22.50;59.40;;;;;;5011271;28;20191;-71
2022/05/22 12:09:19;;;;;;;2.95;1.20;;;22.40;59.20;;;;;;5006459;28;20176;-70
2022/05/22 12:12:24;;;;;;;1.73;1.10;;;22.40;59.30;;;;;;4992368;28;20212;-70
2022/05/22 12:15:17;;;;;;;2.20;1.20;;;22.40;59.50;;;;;;4993036;28;20212;-71
2022/05/22 12:17:49;;;;;;;1.10;1.00;;;22.50;59.30;;;;;;5011620;28;20189;-71
2022/05/22 12:20:32;;;;;;;2.55;1.10;;;22.50;59.30;;;;;;4995812;28;20188;-72
2022/05/22 12:23:27;;;;;;;1.58;1.02;;;22.50;59.20;;;;;;5016697;28;20175;-72
2022/05/22 12:26:00;;;;;;;2.60;1.08;;;22.50;59.30;;;;;;4997011;28;20224;-73
2022/05/22 12:28:50;;;;;;;1.17;0.90;;;22.50;59.40;;;;;;4996345;28;20176;-72
2022/05/22 12:31:27;;;;;;;2.08;1.00;;;22.50;59.60;;;;;;5013970;28;20186;-73
2022/05/22 12:33:57;;;;;;;1.60;1.20;;;22.50;59.40;;;;;;5012873;28;20212;-72
2022/05/22 12:36:28;;;;;;;1.70;1.00;;;22.50;59.30;;;;;;5012503;28;20234;-72
2022/05/22 12:39:05;;;;;;;2.67;0.88;;;22.50;59.20;;;;;;5012795;28;20247;-72
2022/05/22 12:41:56;;;;;;;1.42;0.90;;;22.50;59.90;;;;;;5012632;28;20217;-72
2022/05/22 12:44:25;;;;;;;1.75;1.20;;;22.50;59.30;;;;;;5013586;28;20693;-72
2022/05/22 12:46:52;;;;;;;1.88;0.98;;;22.50;59.30;;;;;;4996083;28;20184;-72
2022/05/22 12:49:23;;;;;;;1.05;0.95;;;22.50;59.10;;;;;;4979979;28;20247;-72
2022/05/22 12:52:14;;;;;;;2.63;1.20;;;22.50;59.20;;;;;;5012376;28;20571;-72
2022/05/22 12:54:40;;;;;;;1.55;1.10;;;22.50;59.30;;;;;;5012478;28;20290;-72
2022/05/22 12:57:18;;;;;;;1.65;1.02;;;22.50;59.20;;;;;;5012631;28;20172;-72
2022/05/22 13:00:39;;;;;;;1.55;1.17;;;22.60;59.10;;;;;;4996200;28;20641;-72
2022/05/22 13:03:14;;;;;;;3.53;1.17;;;22.50;59.10;;;;;;5013503;28;20172;-72
2022/05/22 13:05:47;;;;;;;1.40;1.30;;;22.50;59.10;;;;;;5012656;28;20211;-74
2022/05/22 13:08:30;;;;;;;3.83;1.50;;;22.60;59.10;;;;;;4997870;28;20267;-73
2022/05/22 13:10:59;;;;;;;9.80;2.20;;;22.60;59.40;;;;;;5014644;28;20180;-71
2022/05/22 13:13:35;;;;;;;6.43;2.00;;;22.70;59.50;;;;;;5014273;28;20544;-71
2022/05/22 13:16:08;;;;;;;4.78;1.73;;;22.60;59.50;;;;;;5014013;28;20689;-72
2022/05/22 13:18:47;;;;;;;4.72;1.50;;;22.60;59.60;;;;;;5015261;28;20211;-72
2022/05/22 13:21:39;;;;;;;5.75;1.70;;;22.60;59.60;;;;;;5015334;28;20167;-72
2022/05/22 13:24:31;;;;;;;4.82;1.52;;;22.60;59.60;;;;;;5013951;28;20291;-72
2022/05/22 13:27:23;;;;;;;5.63;2.22;;;22.60;59.40;;;;;;5013621;28;20537;-72
2022/05/22 13:30:16;;;;;;;4.13;1.77;;;22.60;59.40;;;;;;5014245;28;20183;-72
2022/05/22 13:33:06;;;;;;;4.28;1.90;;;22.60;59.40;;;;;;5013876;28;20670;-72
2022/05/22 13:35:47;;;;;;;3.85;1.67;;;22.60;59.60;;;;;;5013718;28;20224;-72
2022/05/22 13:38:13;;;;;;;3.78;1.67;;;22.60;59.60;;;;;;4997428;28;20188;-72
2022/05/22 13:41:18;;;;;;;4.13;1.60;;;22.60;59.50;;;;;;5015070;28;20187;-72
2022/05/22 13:44:12;;;;;;;3.78;1.50;;;22.60;59.50;;;;;;4997458;28;20184;-72
2022/05/22 13:47:21;;;;;;;4.55;1.75;;;22.60;59.40;;;;;;5015194;28;20619;-72
2022/05/22 13:53:15;;;;;;;4.72;2.28;;;22.60;59.20;;;;;;5014818;28;20176;-72
2022/05/22 13:55:44;;;;;;;4.57;1.48;;;22.60;59.30;;;;;;4996984;28;20306;-72
2022/05/22 13:58:34;;;;;;;6.88;1.65;;;22.60;59.30;;;;;;4997216;28;20193;-72
2022/05/22 14:01:09;;;;;;;4.18;1.67;;;22.60;59.40;;;;;;5014971;28;20192;-72
2022/05/22 14:03:46;;;;;;;4.22;1.60;;;22.60;59.50;;;;;;5013172;28;20176;-72